sensor_id;sensor_type;location;lat;lon;timestamp;P1;durP1;ratioP1;P2;durP2;ratioP2
78960;SDS011;68362;45.970;12.646;2023-12-20T00:00:58;10.02;;;5.45;;
78960;SDS011;68362;45.970;12.646;2023-12-20T00:02:13;10.75;;;5.82;;
78960;SDS011;68362;45.970;12.646;2023-12-20T00:03:16;12.13;;;6.60;;
78960;SDS011;68362;45.970;12.646;2023-12-20T00:04:18;12.95;;;6.50;;
78960;SDS011;68362;45.970;12.646;2023-12-20T00:06:23;10.38;;;5.28;;
78960;SDS011;68362;45.970;12.646;2023-12-20T00:07:26;13.15;;;6.15;;
78960;SDS011;68362;45.970;12.646;2023-12-20T00:08:33;10.73;;;6.18;;
78960;SDS011;68362;45.970;12.646;2023-12-20T00:09:35;11.30;;;5.93;;
78960;SDS011;68362;45.970;12.646;2023-12-20T00:10:37;12.65;;;6.85;;
78960;SDS011;68362;45.970;12.646;2023-12-20T00:11:40;12.00;;;6.40;;
78960;SDS011;68362;45.970;12.646;2023-12-20T00:12:44;12.55;;;7.05;;
78960;SDS011;68362;45.970;12.646;2023-12-20T00:13:46;14.65;;;6.97;;
78960;SDS011;68362;45.970;12.646;2023-12-20T00:14:52;10.02;;;6.88;;
78960;SDS011;68362;45.970;12.646;2023-12-20T00:15:54;14.30;;;7.32;;
78960;SDS011;68362;45.970;12.646;2023-12-20T00:16:57;11.05;;;6.53;;
78960;SDS011;68362;45.970;12.646;2023-12-20T00:17:59;15.68;;;8.63;;
78960;SDS011;68362;45.970;12.646;2023-12-20T00:19:02;14.30;;;7.78;;
78960;SDS011;68362;45.970;12.646;2023-12-20T00:20:05;12.00;;;7.90;;
78960;SDS011;68362;45.970;12.646;2023-12-20T00:21:08;11.48;;;7.03;;
78960;SDS011;68362;45.970;12.646;2023-12-20T00:22:11;13.23;;;7.20;;
78960;SDS011;68362;45.970;12.646;2023-12-20T00:23:13;10.40;;;6.53;;
78960;SDS011;68362;45.970;12.646;2023-12-20T00:24:15;15.32;;;8.10;;
78960;SDS011;68362;45.970;12.646;2023-12-20T00:25:18;11.85;;;6.60;;
78960;SDS011;68362;45.970;12.646;2023-12-20T00:26:21;14.30;;;7.13;;
78960;SDS011;68362;45.970;12.646;2023-12-20T00:27:23;11.48;;;7.82;;
78960;SDS011;68362;45.970;12.646;2023-12-20T00:28:25;12.70;;;7.43;;
78960;SDS011;68362;45.970;12.646;2023-12-20T00:29:27;13.18;;;6.72;;
78960;SDS011;68362;45.970;12.646;2023-12-20T00:30:30;9.32;;;6.05;;
78960;SDS011;68362;45.970;12.646;2023-12-20T00:31:32;13.50;;;6.57;;
78960;SDS011;68362;45.970;12.646;2023-12-20T00:32:35;10.82;;;6.43;;
78960;SDS011;68362;45.970;12.646;2023-12-20T00:33:37;12.02;;;7.07;;
78960;SDS011;68362;45.970;12.646;2023-12-20T00:34:42;11.18;;;6.43;;
78960;SDS011;68362;45.970;12.646;2023-12-20T00:36:47;11.20;;;5.15;;
78960;SDS011;68362;45.970;12.646;2023-12-20T00:37:49;11.85;;;6.78;;
78960;SDS011;68362;45.970;12.646;2023-12-20T00:38:52;12.77;;;6.65;;
78960;SDS011;68362;45.970;12.646;2023-12-20T00:39:54;11.77;;;5.80;;
78960;SDS011;68362;45.970;12.646;2023-12-20T00:40:56;12.65;;;6.38;;
78960;SDS011;68362;45.970;12.646;2023-12-20T00:41:59;13.13;;;6.55;;
78960;SDS011;68362;45.970;12.646;2023-12-20T00:43:01;11.27;;;7.05;;
78960;SDS011;68362;45.970;12.646;2023-12-20T00:44:04;11.77;;;6.68;;
78960;SDS011;68362;45.970;12.646;2023-12-20T00:45:06;13.32;;;6.85;;
78960;SDS011;68362;45.970;12.646;2023-12-20T00:46:09;12.40;;;7.45;;
78960;SDS011;68362;45.970;12.646;2023-12-20T00:47:11;12.73;;;7.10;;
78960;SDS011;68362;45.970;12.646;2023-12-20T00:48:15;10.93;;;6.40;;
78960;SDS011;68362;45.970;12.646;2023-12-20T00:49:17;11.70;;;6.65;;
78960;SDS011;68362;45.970;12.646;2023-12-20T00:50:19;10.15;;;5.45;;
78960;SDS011;68362;45.970;12.646;2023-12-20T00:51:25;11.35;;;7.30;;
78960;SDS011;68362;45.970;12.646;2023-12-20T00:52:27;12.85;;;7.68;;
78960;SDS011;68362;45.970;12.646;2023-12-20T00:53:29;9.98;;;6.78;;
78960;SDS011;68362;45.970;12.646;2023-12-20T00:54:32;14.23;;;7.43;;
78960;SDS011;68362;45.970;12.646;2023-12-20T00:55:34;11.45;;;6.80;;
78960;SDS011;68362;45.970;12.646;2023-12-20T00:56:36;12.57;;;7.40;;
78960;SDS011;68362;45.970;12.646;2023-12-20T00:57:39;14.00;;;6.95;;
78960;SDS011;68362;45.970;12.646;2023-12-20T00:58:41;13.95;;;7.28;;
78960;SDS011;68362;45.970;12.646;2023-12-20T00:59:43;11.93;;;7.03;;
78960;SDS011;68362;45.970;12.646;2023-12-20T01:00:46;14.02;;;7.53;;
78960;SDS011;68362;45.970;12.646;2023-12-20T01:01:48;13.60;;;7.00;;
78960;SDS011;68362;45.970;12.646;2023-12-20T01:02:51;13.63;;;7.05;;
78960;SDS011;68362;45.970;12.646;2023-12-20T01:03:53;9.13;;;6.20;;
78960;SDS011;68362;45.970;12.646;2023-12-20T01:04:56;12.05;;;6.72;;
78960;SDS011;68362;45.970;12.646;2023-12-20T01:05:58;12.90;;;6.38;;
78960;SDS011;68362;45.970;12.646;2023-12-20T01:07:00;9.25;;;5.80;;
78960;SDS011;68362;45.970;12.646;2023-12-20T01:08:03;9.88;;;6.07;;
78960;SDS011;68362;45.970;12.646;2023-12-20T01:09:06;11.25;;;5.85;;
78960;SDS011;68362;45.970;12.646;2023-12-20T01:10:09;11.15;;;6.50;;
78960;SDS011;68362;45.970;12.646;2023-12-20T01:11:11;12.18;;;7.45;;
78960;SDS011;68362;45.970;12.646;2023-12-20T01:12:14;11.30;;;6.30;;
78960;SDS011;68362;45.970;12.646;2023-12-20T01:13:16;11.50;;;6.45;;
78960;SDS011;68362;45.970;12.646;2023-12-20T01:14:18;11.85;;;6.30;;
78960;SDS011;68362;45.970;12.646;2023-12-20T01:15:21;8.80;;;5.60;;
78960;SDS011;68362;45.970;12.646;2023-12-20T01:16:23;8.85;;;5.55;;
78960;SDS011;68362;45.970;12.646;2023-12-20T01:17:25;9.88;;;5.88;;
78960;SDS011;68362;45.970;12.646;2023-12-20T01:18:28;12.13;;;6.60;;
78960;SDS011;68362;45.970;12.646;2023-12-20T01:19:30;9.85;;;5.53;;
78960;SDS011;68362;45.970;12.646;2023-12-20T01:20:32;9.68;;;5.75;;
78960;SDS011;68362;45.970;12.646;2023-12-20T01:21:34;11.73;;;7.38;;
78960;SDS011;68362;45.970;12.646;2023-12-20T01:22:37;13.93;;;6.55;;
78960;SDS011;68362;45.970;12.646;2023-12-20T01:23:39;9.32;;;5.80;;
78960;SDS011;68362;45.970;12.646;2023-12-20T01:24:42;11.55;;;6.28;;
78960;SDS011;68362;45.970;12.646;2023-12-20T01:25:44;9.52;;;6.10;;
78960;SDS011;68362;45.970;12.646;2023-12-20T01:26:46;10.13;;;5.50;;
78960;SDS011;68362;45.970;12.646;2023-12-20T01:27:49;10.10;;;6.07;;
78960;SDS011;68362;45.970;12.646;2023-12-20T01:28:52;12.70;;;5.85;;
78960;SDS011;68362;45.970;12.646;2023-12-20T01:29:54;11.68;;;6.22;;
78960;SDS011;68362;45.970;12.646;2023-12-20T01:30:57;9.45;;;5.93;;
78960;SDS011;68362;45.970;12.646;2023-12-20T01:33:02;12.27;;;5.68;;
78960;SDS011;68362;45.970;12.646;2023-12-20T01:34:04;11.52;;;5.53;;
78960;SDS011;68362;45.970;12.646;2023-12-20T01:35:06;10.30;;;6.85;;
78960;SDS011;68362;45.970;12.646;2023-12-20T01:36:09;10.63;;;6.22;;
78960;SDS011;68362;45.970;12.646;2023-12-20T01:37:11;12.23;;;6.57;;
78960;SDS011;68362;45.970;12.646;2023-12-20T01:38:14;11.93;;;6.80;;
78960;SDS011;68362;45.970;12.646;2023-12-20T01:39:17;13.52;;;6.88;;
78960;SDS011;68362;45.970;12.646;2023-12-20T01:40:29;10.75;;;6.32;;
78960;SDS011;68362;45.970;12.646;2023-12-20T01:41:31;12.25;;;6.65;;
78960;SDS011;68362;45.970;12.646;2023-12-20T01:42:33;14.95;;;7.45;;
78960;SDS011;68362;45.970;12.646;2023-12-20T01:43:35;13.25;;;7.32;;
78960;SDS011;68362;45.970;12.646;2023-12-20T01:44:51;12.98;;;7.47;;
78960;SDS011;68362;45.970;12.646;2023-12-20T01:45:54;15.65;;;6.68;;
78960;SDS011;68362;45.970;12.646;2023-12-20T01:46:58;14.07;;;7.45;;
78960;SDS011;68362;45.970;12.646;2023-12-20T01:48:02;12.38;;;7.07;;
78960;SDS011;68362;45.970;12.646;2023-12-20T01:49:06;12.18;;;7.05;;
78960;SDS011;68362;45.970;12.646;2023-12-20T01:50:09;14.88;;;7.53;;
78960;SDS011;68362;45.970;12.646;2023-12-20T01:51:11;14.75;;;8.20;;
78960;SDS011;68362;45.970;12.646;2023-12-20T01:52:13;16.88;;;8.65;;
78960;SDS011;68362;45.970;12.646;2023-12-20T01:53:15;13.57;;;6.65;;
78960;SDS011;68362;45.970;12.646;2023-12-20T01:54:18;13.45;;;7.15;;
78960;SDS011;68362;45.970;12.646;2023-12-20T01:55:22;14.57;;;7.60;;
78960;SDS011;68362;45.970;12.646;2023-12-20T01:56:25;13.68;;;7.22;;
78960;SDS011;68362;45.970;12.646;2023-12-20T01:57:28;16.10;;;7.85;;
78960;SDS011;68362;45.970;12.646;2023-12-20T01:58:30;14.90;;;7.97;;
78960;SDS011;68362;45.970;12.646;2023-12-20T01:59:32;11.20;;;7.35;;
78960;SDS011;68362;45.970;12.646;2023-12-20T02:00:36;16.80;;;6.78;;
78960;SDS011;68362;45.970;12.646;2023-12-20T02:01:39;17.77;;;8.20;;
78960;SDS011;68362;45.970;12.646;2023-12-20T02:02:41;13.02;;;7.93;;
78960;SDS011;68362;45.970;12.646;2023-12-20T02:03:43;14.40;;;7.75;;
78960;SDS011;68362;45.970;12.646;2023-12-20T02:04:47;19.67;;;7.93;;
78960;SDS011;68362;45.970;12.646;2023-12-20T02:05:49;14.05;;;7.70;;
78960;SDS011;68362;45.970;12.646;2023-12-20T02:06:52;12.63;;;7.18;;
78960;SDS011;68362;45.970;12.646;2023-12-20T02:08:57;16.58;;;6.93;;
78960;SDS011;68362;45.970;12.646;2023-12-20T02:10:01;15.85;;;7.38;;
78960;SDS011;68362;45.970;12.646;2023-12-20T02:11:03;14.50;;;6.68;;
78960;SDS011;68362;45.970;12.646;2023-12-20T02:12:06;12.43;;;6.93;;
78960;SDS011;68362;45.970;12.646;2023-12-20T02:13:08;13.13;;;7.57;;
78960;SDS011;68362;45.970;12.646;2023-12-20T02:14:10;15.15;;;7.20;;
78960;SDS011;68362;45.970;12.646;2023-12-20T02:15:12;14.68;;;7.43;;
78960;SDS011;68362;45.970;12.646;2023-12-20T02:16:15;13.18;;;7.55;;
78960;SDS011;68362;45.970;12.646;2023-12-20T02:17:17;18.17;;;7.47;;
78960;SDS011;68362;45.970;12.646;2023-12-20T02:18:19;12.80;;;6.97;;
78960;SDS011;68362;45.970;12.646;2023-12-20T02:19:21;15.10;;;7.75;;
78960;SDS011;68362;45.970;12.646;2023-12-20T02:20:24;15.73;;;7.35;;
78960;SDS011;68362;45.970;12.646;2023-12-20T02:21:35;16.15;;;8.73;;
78960;SDS011;68362;45.970;12.646;2023-12-20T02:22:37;14.30;;;8.35;;
78960;SDS011;68362;45.970;12.646;2023-12-20T02:23:39;14.77;;;7.22;;
78960;SDS011;68362;45.970;12.646;2023-12-20T02:24:41;15.20;;;7.20;;
78960;SDS011;68362;45.970;12.646;2023-12-20T02:25:43;13.15;;;8.05;;
78960;SDS011;68362;45.970;12.646;2023-12-20T02:26:46;17.15;;;8.20;;
78960;SDS011;68362;45.970;12.646;2023-12-20T02:27:48;11.18;;;6.97;;
78960;SDS011;68362;45.970;12.646;2023-12-20T02:28:51;12.65;;;7.40;;
78960;SDS011;68362;45.970;12.646;2023-12-20T02:29:53;12.65;;;7.10;;
78960;SDS011;68362;45.970;12.646;2023-12-20T02:30:55;14.82;;;7.43;;
78960;SDS011;68362;45.970;12.646;2023-12-20T02:31:57;14.40;;;8.60;;
78960;SDS011;68362;45.970;12.646;2023-12-20T02:33:00;17.20;;;8.05;;
78960;SDS011;68362;45.970;12.646;2023-12-20T02:34:03;14.10;;;7.72;;
78960;SDS011;68362;45.970;12.646;2023-12-20T02:35:05;15.18;;;7.65;;
78960;SDS011;68362;45.970;12.646;2023-12-20T02:36:07;14.60;;;7.95;;
78960;SDS011;68362;45.970;12.646;2023-12-20T02:37:10;15.65;;;7.50;;
78960;SDS011;68362;45.970;12.646;2023-12-20T02:38:12;14.00;;;8.00;;
78960;SDS011;68362;45.970;12.646;2023-12-20T02:39:15;12.98;;;7.35;;
78960;SDS011;68362;45.970;12.646;2023-12-20T02:40:17;15.73;;;7.32;;
78960;SDS011;68362;45.970;12.646;2023-12-20T02:41:20;13.55;;;7.18;;
78960;SDS011;68362;45.970;12.646;2023-12-20T02:42:22;15.95;;;8.30;;
78960;SDS011;68362;45.970;12.646;2023-12-20T02:43:24;11.43;;;6.65;;
78960;SDS011;68362;45.970;12.646;2023-12-20T02:44:26;10.50;;;6.40;;
78960;SDS011;68362;45.970;12.646;2023-12-20T02:45:29;12.32;;;6.85;;
78960;SDS011;68362;45.970;12.646;2023-12-20T02:46:31;11.88;;;6.45;;
78960;SDS011;68362;45.970;12.646;2023-12-20T02:47:33;14.35;;;6.07;;
78960;SDS011;68362;45.970;12.646;2023-12-20T02:48:35;11.18;;;6.63;;
78960;SDS011;68362;45.970;12.646;2023-12-20T02:49:38;15.75;;;6.65;;
78960;SDS011;68362;45.970;12.646;2023-12-20T02:50:40;9.40;;;6.03;;
78960;SDS011;68362;45.970;12.646;2023-12-20T02:51:42;14.00;;;6.63;;
78960;SDS011;68362;45.970;12.646;2023-12-20T02:52:44;12.68;;;5.93;;
78960;SDS011;68362;45.970;12.646;2023-12-20T02:54:49;10.38;;;5.38;;
78960;SDS011;68362;45.970;12.646;2023-12-20T02:55:51;11.02;;;6.40;;
78960;SDS011;68362;45.970;12.646;2023-12-20T02:56:53;11.07;;;6.18;;
78960;SDS011;68362;45.970;12.646;2023-12-20T02:57:55;11.30;;;6.25;;
78960;SDS011;68362;45.970;12.646;2023-12-20T02:58:58;8.73;;;5.95;;
78960;SDS011;68362;45.970;12.646;2023-12-20T03:00:00;11.20;;;5.95;;
78960;SDS011;68362;45.970;12.646;2023-12-20T03:01:02;12.90;;;5.68;;
78960;SDS011;68362;45.970;12.646;2023-12-20T03:02:05;9.25;;;5.30;;
78960;SDS011;68362;45.970;12.646;2023-12-20T03:03:07;13.43;;;5.60;;
78960;SDS011;68362;45.970;12.646;2023-12-20T03:04:09;9.35;;;4.95;;
78960;SDS011;68362;45.970;12.646;2023-12-20T03:05:11;8.80;;;5.57;;
78960;SDS011;68362;45.970;12.646;2023-12-20T03:06:17;8.50;;;5.10;;
78960;SDS011;68362;45.970;12.646;2023-12-20T03:07:20;12.27;;;5.78;;
78960;SDS011;68362;45.970;12.646;2023-12-20T03:08:23;11.20;;;5.95;;
78960;SDS011;68362;45.970;12.646;2023-12-20T03:09:25;8.82;;;5.35;;
78960;SDS011;68362;45.970;12.646;2023-12-20T03:10:29;8.00;;;4.93;;
78960;SDS011;68362;45.970;12.646;2023-12-20T03:11:31;12.25;;;5.03;;
78960;SDS011;68362;45.970;12.646;2023-12-20T03:12:33;10.60;;;5.47;;
78960;SDS011;68362;45.970;12.646;2023-12-20T03:13:35;7.32;;;4.97;;
78960;SDS011;68362;45.970;12.646;2023-12-20T03:14:37;8.23;;;4.70;;
78960;SDS011;68362;45.970;12.646;2023-12-20T03:15:40;8.57;;;5.18;;
78960;SDS011;68362;45.970;12.646;2023-12-20T03:16:46;8.20;;;5.03;;
78960;SDS011;68362;45.970;12.646;2023-12-20T03:17:49;10.70;;;4.90;;
78960;SDS011;68362;45.970;12.646;2023-12-20T03:18:51;8.82;;;4.57;;
78960;SDS011;68362;45.970;12.646;2023-12-20T03:19:54;6.13;;;4.07;;
78960;SDS011;68362;45.970;12.646;2023-12-20T03:20:56;7.57;;;4.20;;
78960;SDS011;68362;45.970;12.646;2023-12-20T03:21:58;11.90;;;5.57;;
78960;SDS011;68362;45.970;12.646;2023-12-20T03:23:03;6.80;;;3.55;;
78960;SDS011;68362;45.970;12.646;2023-12-20T03:25:07;5.75;;;3.88;;
78960;SDS011;68362;45.970;12.646;2023-12-20T03:26:10;6.32;;;3.83;;
78960;SDS011;68362;45.970;12.646;2023-12-20T03:27:12;6.47;;;3.60;;
78960;SDS011;68362;45.970;12.646;2023-12-20T03:28:15;7.20;;;4.22;;
78960;SDS011;68362;45.970;12.646;2023-12-20T03:29:17;7.55;;;3.65;;
78960;SDS011;68362;45.970;12.646;2023-12-20T03:30:19;6.38;;;3.65;;
78960;SDS011;68362;45.970;12.646;2023-12-20T03:31:22;9.63;;;3.63;;
78960;SDS011;68362;45.970;12.646;2023-12-20T03:32:24;7.63;;;3.40;;
78960;SDS011;68362;45.970;12.646;2023-12-20T03:33:26;6.57;;;4.00;;
78960;SDS011;68362;45.970;12.646;2023-12-20T03:34:28;6.82;;;2.97;;
78960;SDS011;68362;45.970;12.646;2023-12-20T03:35:31;4.97;;;3.30;;
78960;SDS011;68362;45.970;12.646;2023-12-20T03:36:33;4.95;;;2.95;;
78960;SDS011;68362;45.970;12.646;2023-12-20T03:37:35;5.57;;;2.90;;
78960;SDS011;68362;45.970;12.646;2023-12-20T03:38:37;5.57;;;2.80;;
78960;SDS011;68362;45.970;12.646;2023-12-20T03:39:40;6.22;;;3.33;;
78960;SDS011;68362;45.970;12.646;2023-12-20T03:40:42;4.10;;;1.90;;
78960;SDS011;68362;45.970;12.646;2023-12-20T03:41:44;4.57;;;2.15;;
78960;SDS011;68362;45.970;12.646;2023-12-20T03:42:47;6.57;;;2.85;;
78960;SDS011;68362;45.970;12.646;2023-12-20T03:43:49;5.85;;;2.67;;
78960;SDS011;68362;45.970;12.646;2023-12-20T03:45:54;3.65;;;1.95;;
78960;SDS011;68362;45.970;12.646;2023-12-20T03:46:56;5.57;;;2.33;;
78960;SDS011;68362;45.970;12.646;2023-12-20T03:47:58;4.15;;;2.10;;
78960;SDS011;68362;45.970;12.646;2023-12-20T03:49:01;5.22;;;2.70;;
78960;SDS011;68362;45.970;12.646;2023-12-20T03:50:05;5.03;;;2.28;;
78960;SDS011;68362;45.970;12.646;2023-12-20T03:51:08;4.30;;;2.30;;
78960;SDS011;68362;45.970;12.646;2023-12-20T03:52:10;3.88;;;2.33;;
78960;SDS011;68362;45.970;12.646;2023-12-20T03:53:12;4.47;;;2.40;;
78960;SDS011;68362;45.970;12.646;2023-12-20T03:54:14;4.18;;;2.25;;
78960;SDS011;68362;45.970;12.646;2023-12-20T03:55:16;4.65;;;2.22;;
78960;SDS011;68362;45.970;12.646;2023-12-20T03:56:19;5.28;;;2.42;;
78960;SDS011;68362;45.970;12.646;2023-12-20T03:57:21;2.95;;;2.20;;
78960;SDS011;68362;45.970;12.646;2023-12-20T03:58:23;4.45;;;2.40;;
78960;SDS011;68362;45.970;12.646;2023-12-20T03:59:26;3.72;;;2.53;;
78960;SDS011;68362;45.970;12.646;2023-12-20T04:00:28;4.70;;;2.67;;
78960;SDS011;68362;45.970;12.646;2023-12-20T04:01:30;3.83;;;2.00;;
78960;SDS011;68362;45.970;12.646;2023-12-20T04:02:33;3.28;;;2.03;;
78960;SDS011;68362;45.970;12.646;2023-12-20T04:03:35;2.78;;;1.75;;
78960;SDS011;68362;45.970;12.646;2023-12-20T04:04:37;2.78;;;1.67;;
78960;SDS011;68362;45.970;12.646;2023-12-20T04:05:40;4.28;;;1.67;;
78960;SDS011;68362;45.970;12.646;2023-12-20T04:06:42;2.70;;;1.67;;
78960;SDS011;68362;45.970;12.646;2023-12-20T04:07:45;3.03;;;1.80;;
78960;SDS011;68362;45.970;12.646;2023-12-20T04:08:47;3.65;;;1.88;;
78960;SDS011;68362;45.970;12.646;2023-12-20T04:09:50;4.32;;;1.58;;
78960;SDS011;68362;45.970;12.646;2023-12-20T04:10:52;3.30;;;1.75;;
78960;SDS011;68362;45.970;12.646;2023-12-20T04:11:55;2.88;;;1.63;;
78960;SDS011;68362;45.970;12.646;2023-12-20T04:12:57;3.42;;;1.52;;
78960;SDS011;68362;45.970;12.646;2023-12-20T04:13:59;3.78;;;1.83;;
78960;SDS011;68362;45.970;12.646;2023-12-20T04:15:02;2.67;;;1.40;;
78960;SDS011;68362;45.970;12.646;2023-12-20T04:16:11;2.38;;;1.38;;
78960;SDS011;68362;45.970;12.646;2023-12-20T04:17:14;3.63;;;1.60;;
78960;SDS011;68362;45.970;12.646;2023-12-20T04:18:18;4.03;;;1.60;;
78960;SDS011;68362;45.970;12.646;2023-12-20T04:19:20;2.92;;;1.48;;
78960;SDS011;68362;45.970;12.646;2023-12-20T04:20:22;3.20;;;1.80;;
78960;SDS011;68362;45.970;12.646;2023-12-20T04:21:24;5.00;;;2.33;;
78960;SDS011;68362;45.970;12.646;2023-12-20T04:22:27;4.00;;;1.73;;
78960;SDS011;68362;45.970;12.646;2023-12-20T04:23:29;4.38;;;1.90;;
78960;SDS011;68362;45.970;12.646;2023-12-20T04:24:31;3.20;;;1.75;;
78960;SDS011;68362;45.970;12.646;2023-12-20T04:25:33;4.90;;;1.75;;
78960;SDS011;68362;45.970;12.646;2023-12-20T04:26:35;3.20;;;1.77;;
78960;SDS011;68362;45.970;12.646;2023-12-20T04:27:37;3.60;;;2.13;;
78960;SDS011;68362;45.970;12.646;2023-12-20T04:28:39;2.78;;;1.90;;
78960;SDS011;68362;45.970;12.646;2023-12-20T04:29:42;3.15;;;2.20;;
78960;SDS011;68362;45.970;12.646;2023-12-20T04:30:44;3.92;;;2.13;;
78960;SDS011;68362;45.970;12.646;2023-12-20T04:31:47;4.05;;;1.42;;
78960;SDS011;68362;45.970;12.646;2023-12-20T04:32:49;4.05;;;1.90;;
78960;SDS011;68362;45.970;12.646;2023-12-20T04:33:51;3.28;;;1.95;;
78960;SDS011;68362;45.970;12.646;2023-12-20T04:34:54;5.07;;;2.13;;
78960;SDS011;68362;45.970;12.646;2023-12-20T04:35:56;7.22;;;1.90;;
78960;SDS011;68362;45.970;12.646;2023-12-20T04:36:59;3.15;;;2.13;;
78960;SDS011;68362;45.970;12.646;2023-12-20T04:38:01;2.13;;;1.55;;
78960;SDS011;68362;45.970;12.646;2023-12-20T04:39:04;4.18;;;2.05;;
78960;SDS011;68362;45.970;12.646;2023-12-20T04:40:06;5.25;;;1.58;;
78960;SDS011;68362;45.970;12.646;2023-12-20T04:41:10;4.10;;;1.90;;
78960;SDS011;68362;45.970;12.646;2023-12-20T04:42:12;3.45;;;1.92;;
78960;SDS011;68362;45.970;12.646;2023-12-20T04:43:14;3.25;;;1.70;;
78960;SDS011;68362;45.970;12.646;2023-12-20T04:44:16;4.10;;;1.73;;
78960;SDS011;68362;45.970;12.646;2023-12-20T04:45:19;4.25;;;2.33;;
78960;SDS011;68362;45.970;12.646;2023-12-20T04:46:21;3.50;;;1.95;;
78960;SDS011;68362;45.970;12.646;2023-12-20T04:47:23;3.28;;;1.70;;
78960;SDS011;68362;45.970;12.646;2023-12-20T04:48:25;3.88;;;1.90;;
78960;SDS011;68362;45.970;12.646;2023-12-20T04:49:28;4.60;;;2.05;;
78960;SDS011;68362;45.970;12.646;2023-12-20T04:50:30;4.50;;;2.00;;
78960;SDS011;68362;45.970;12.646;2023-12-20T04:51:33;5.75;;;2.40;;
78960;SDS011;68362;45.970;12.646;2023-12-20T04:52:36;3.80;;;2.00;;
78960;SDS011;68362;45.970;12.646;2023-12-20T04:53:38;4.25;;;2.17;;
78960;SDS011;68362;45.970;12.646;2023-12-20T04:54:40;4.38;;;2.22;;
78960;SDS011;68362;45.970;12.646;2023-12-20T04:55:45;4.70;;;2.42;;
78960;SDS011;68362;45.970;12.646;2023-12-20T04:56:48;3.47;;;2.00;;
78960;SDS011;68362;45.970;12.646;2023-12-20T04:57:50;3.00;;;2.17;;
78960;SDS011;68362;45.970;12.646;2023-12-20T04:58:52;4.68;;;2.47;;
78960;SDS011;68362;45.970;12.646;2023-12-20T04:59:54;3.83;;;2.35;;
78960;SDS011;68362;45.970;12.646;2023-12-20T05:00:56;3.97;;;2.40;;
78960;SDS011;68362;45.970;12.646;2023-12-20T05:01:59;4.65;;;2.20;;
78960;SDS011;68362;45.970;12.646;2023-12-20T05:03:01;7.55;;;1.98;;
78960;SDS011;68362;45.970;12.646;2023-12-20T05:04:03;5.95;;;2.72;;
78960;SDS011;68362;45.970;12.646;2023-12-20T05:05:05;5.05;;;2.30;;
78960;SDS011;68362;45.970;12.646;2023-12-20T05:06:09;4.47;;;2.53;;
78960;SDS011;68362;45.970;12.646;2023-12-20T05:08:14;4.68;;;1.98;;
78960;SDS011;68362;45.970;12.646;2023-12-20T05:09:16;3.92;;;2.40;;
78960;SDS011;68362;45.970;12.646;2023-12-20T05:10:18;3.88;;;2.03;;
78960;SDS011;68362;45.970;12.646;2023-12-20T05:11:20;5.70;;;2.40;;
78960;SDS011;68362;45.970;12.646;2023-12-20T05:12:23;5.30;;;2.83;;
78960;SDS011;68362;45.970;12.646;2023-12-20T05:13:25;4.60;;;2.80;;
78960;SDS011;68362;45.970;12.646;2023-12-20T05:14:42;4.72;;;3.13;;
78960;SDS011;68362;45.970;12.646;2023-12-20T05:15:44;6.32;;;3.40;;
78960;SDS011;68362;45.970;12.646;2023-12-20T05:16:47;5.93;;;2.58;;
78960;SDS011;68362;45.970;12.646;2023-12-20T05:17:49;5.93;;;2.70;;
78960;SDS011;68362;45.970;12.646;2023-12-20T05:18:51;5.43;;;2.72;;
78960;SDS011;68362;45.970;12.646;2023-12-20T05:20:57;6.07;;;2.63;;
78960;SDS011;68362;45.970;12.646;2023-12-20T05:22:00;3.97;;;3.05;;
78960;SDS011;68362;45.970;12.646;2023-12-20T05:23:03;6.20;;;3.00;;
78960;SDS011;68362;45.970;12.646;2023-12-20T05:24:05;7.07;;;2.75;;
78960;SDS011;68362;45.970;12.646;2023-12-20T05:25:08;5.15;;;2.80;;
78960;SDS011;68362;45.970;12.646;2023-12-20T05:26:10;4.50;;;2.72;;
78960;SDS011;68362;45.970;12.646;2023-12-20T05:27:12;5.13;;;2.45;;
78960;SDS011;68362;45.970;12.646;2023-12-20T05:28:15;5.43;;;3.00;;
78960;SDS011;68362;45.970;12.646;2023-12-20T05:29:17;5.93;;;3.25;;
78960;SDS011;68362;45.970;12.646;2023-12-20T05:30:19;4.78;;;2.60;;
78960;SDS011;68362;45.970;12.646;2023-12-20T05:31:21;5.00;;;2.75;;
78960;SDS011;68362;45.970;12.646;2023-12-20T05:32:24;6.00;;;3.35;;
78960;SDS011;68362;45.970;12.646;2023-12-20T05:33:26;5.78;;;3.17;;
78960;SDS011;68362;45.970;12.646;2023-12-20T05:34:28;5.10;;;2.97;;
78960;SDS011;68362;45.970;12.646;2023-12-20T05:35:31;4.75;;;3.08;;
78960;SDS011;68362;45.970;12.646;2023-12-20T05:36:33;5.72;;;2.75;;
78960;SDS011;68362;45.970;12.646;2023-12-20T05:37:35;4.95;;;2.90;;
78960;SDS011;68362;45.970;12.646;2023-12-20T05:38:37;10.10;;;3.10;;
78960;SDS011;68362;45.970;12.646;2023-12-20T05:39:40;5.43;;;2.85;;
78960;SDS011;68362;45.970;12.646;2023-12-20T05:40:42;5.93;;;2.67;;
78960;SDS011;68362;45.970;12.646;2023-12-20T05:41:44;5.47;;;2.88;;
78960;SDS011;68362;45.970;12.646;2023-12-20T05:42:46;4.07;;;2.75;;
78960;SDS011;68362;45.970;12.646;2023-12-20T05:43:48;4.60;;;2.78;;
78960;SDS011;68362;45.970;12.646;2023-12-20T05:44:50;4.90;;;2.58;;
78960;SDS011;68362;45.970;12.646;2023-12-20T05:45:56;5.85;;;2.85;;
78960;SDS011;68362;45.970;12.646;2023-12-20T05:46:58;9.93;;;3.60;;
78960;SDS011;68362;45.970;12.646;2023-12-20T05:48:00;5.82;;;3.17;;
78960;SDS011;68362;45.970;12.646;2023-12-20T05:49:02;4.47;;;2.42;;
78960;SDS011;68362;45.970;12.646;2023-12-20T05:50:05;4.10;;;2.85;;
78960;SDS011;68362;45.970;12.646;2023-12-20T05:51:08;6.05;;;2.95;;
78960;SDS011;68362;45.970;12.646;2023-12-20T05:52:13;3.75;;;2.58;;
78960;SDS011;68362;45.970;12.646;2023-12-20T05:53:15;5.13;;;2.72;;
78960;SDS011;68362;45.970;12.646;2023-12-20T05:54:17;6.00;;;3.05;;
78960;SDS011;68362;45.970;12.646;2023-12-20T05:55:20;6.05;;;3.10;;
78960;SDS011;68362;45.970;12.646;2023-12-20T05:56:22;4.50;;;2.55;;
78960;SDS011;68362;45.970;12.646;2023-12-20T05:57:24;6.43;;;3.03;;
78960;SDS011;68362;45.970;12.646;2023-12-20T05:58:26;7.47;;;2.85;;
78960;SDS011;68362;45.970;12.646;2023-12-20T05:59:29;4.90;;;2.97;;
78960;SDS011;68362;45.970;12.646;2023-12-20T06:00:31;5.20;;;2.88;;
78960;SDS011;68362;45.970;12.646;2023-12-20T06:01:33;5.50;;;3.17;;
78960;SDS011;68362;45.970;12.646;2023-12-20T06:02:35;7.95;;;3.00;;
78960;SDS011;68362;45.970;12.646;2023-12-20T06:04:43;5.53;;;3.22;;
78960;SDS011;68362;45.970;12.646;2023-12-20T06:05:45;6.72;;;3.30;;
78960;SDS011;68362;45.970;12.646;2023-12-20T06:06:48;5.63;;;2.83;;
78960;SDS011;68362;45.970;12.646;2023-12-20T06:07:50;5.82;;;3.10;;
78960;SDS011;68362;45.970;12.646;2023-12-20T06:08:52;4.05;;;3.08;;
78960;SDS011;68362;45.970;12.646;2023-12-20T06:09:54;7.72;;;3.20;;
78960;SDS011;68362;45.970;12.646;2023-12-20T06:10:57;4.25;;;2.65;;
78960;SDS011;68362;45.970;12.646;2023-12-20T06:11:59;6.85;;;3.50;;
78960;SDS011;68362;45.970;12.646;2023-12-20T06:13:01;6.60;;;3.50;;
78960;SDS011;68362;45.970;12.646;2023-12-20T06:14:03;5.97;;;3.80;;
78960;SDS011;68362;45.970;12.646;2023-12-20T06:15:06;7.20;;;3.83;;
78960;SDS011;68362;45.970;12.646;2023-12-20T06:16:08;6.50;;;3.78;;
78960;SDS011;68362;45.970;12.646;2023-12-20T06:17:11;6.82;;;3.78;;
78960;SDS011;68362;45.970;12.646;2023-12-20T06:18:13;7.40;;;3.75;;
78960;SDS011;68362;45.970;12.646;2023-12-20T06:19:15;6.35;;;3.75;;
78960;SDS011;68362;45.970;12.646;2023-12-20T06:20:17;7.47;;;4.20;;